« 定点 富山空港他 2024/2/13 tue | トップページ | 定点 富山空港他 2024/2/18 sun »

2024/02/17

定点 富山空港他 2024/2/17 sat

如月も折り返し。こんな暖かく、良い天気で良いのでしょうか? 夏が思いやられます。

今日はまず難破船

RJNT 170100Z VRB02KT 9999 FEW010 06/M01 Q1024

20240217_0iwase_00dongyu

なにやら作業が始まったようです。

20240217_0iwase_01dongyu

海岸に打ち上げられていた漂着物が集められています。

20240217_0iwase_02dongyu

おやおや、上空に海保ヘリ

20240217_0iwase_03ja978a

JA978A AW139 JCG

新潟から状況観察に飛来の模様。

20240217_0iwase_04dongyu

燃料抜き取りが行われるようです。

20240217_0iwase_05dongyu

また帰りに寄ってみます。

20240217_rjnt_06ja13aj

JA13AJ C208 ASK

地震後、兄弟で能登の航空測量に良くきています。

20240217_rjnt_07b18661

JA13AJさんがMEDICまでIFRで来たので、ダイナさんが待たされています。

20240217_rjnt_08b18661

CAL2170 RCTP-RJNT B-18661 B737-8AL

春チャーターのダイナさんを、ようやく撮影

この後JA14AJさんがVFRで進入

RJNT 170200Z 21003KT 160V310 9999 FEW020 07/M01 Q1024

20240217_rjnt_09ja68an

20240217_rjnt_10ja68an

ANA315 RJTT-RJNT JA68AN B737-881

土曜で道が混んでいて、ギリギリ間に合いました。

20240217_rjnt_11a02tk

JA02TK↓ AS350 TKB

こちらも能登の航空測量からの帰り

20240217_rjnt_12ja02tk

20240217_rjnt_13b18661

20240217_rjnt_14b18661

 

20240217_rjnt_15b18661

CAL2171 RJNT-RCTP B-18661 B737-8AL

RJNT 170300Z VRB03KT 9999 FEW020 09/01 Q1024

20240217_rjnt_16ja81an

ダイナさんの離陸で上空で待たされていました。ノンレーダーは、つらいね。

20240217_rjnt_17ja81an

ANA1182 RJCC-RJNT JA81AN B737-881

20240217_rjnt_18ja81an

エプロンには、さらに待たされているANA316

20240217_rjnt_19ja81an

20240217_rjnt_20ja81an

ANA316 RJNT-RJTT JA68AN B737-881

20240217_rjnt_21ja02tk

JA02TK↑

20240217_rjnt_22ja139t

こちらも能登に行っていた「つるぎ」さん帰還

20240217_rjnt_23ja139t

JA139T↓ AW139 富山県警察

RJNT 170400Z VRB02KT 9999 FEW020 09/00 Q1023

20240217_rjnt_24ja81an

20240217_rjnt_25ja81an

20240217_rjnt_26ja81an

ANA1181 RJNT-RJCC JA81AN B737-881

RJNT 170500Z 35008KT 9999 FEW020 10/01 Q1022

20240217_rjnt_27moon

今日は、H3ロケットの打上成功。良かった、良かった。

20240217_rjnt_28b5261

20240217_rjnt_29b5261

20240217_rjnt_30b5261

CSH825 ZSPD-RJNT B-5261 B737-7D6

20240217_ziwase_31dongyu

さて、帰りにもう一度難破船を覗いてみた。

20240217_ziwase_32dongyu

油の回収は、1か月ほどかかるとのこと。息の長い作業です。

支援船の動向

PL72「れぶん」は、昨日七尾を発って、室蘭に帰還

代わりに舞鶴からPL22「みうら」が七尾に来ました。

自衛艦「ひうち」は、朝七尾を発って、舞鶴に帰還、代わりに「はつしま」が来る模様

 

 

|

« 定点 富山空港他 2024/2/13 tue | トップページ | 定点 富山空港他 2024/2/18 sun »

うみ」カテゴリの記事

富山空港」カテゴリの記事

海上保安庁」カテゴリの記事

コメント

コメントを書く



(ウェブ上には掲載しません)


コメントは記事投稿者が公開するまで表示されません。



« 定点 富山空港他 2024/2/13 tue | トップページ | 定点 富山空港他 2024/2/18 sun »